sensor_id;sensor_type;location;lat;lon;timestamp;temperature;humidity
21092;DHT22;10704;42.678;23.288;2023-09-07T00:00:43;19.70;99.90
21092;DHT22;10704;42.678;23.288;2023-09-07T00:03:09;19.70;99.90
21092;DHT22;10704;42.678;23.288;2023-09-07T00:05:35;19.70;99.90
21092;DHT22;10704;42.678;23.288;2023-09-07T00:08:01;19.60;99.90
21092;DHT22;10704;42.678;23.288;2023-09-07T00:10:27;19.60;99.90
21092;DHT22;10704;42.678;23.288;2023-09-07T00:12:53;19.60;99.90
21092;DHT22;10704;42.678;23.288;2023-09-07T00:15:19;19.60;99.90
21092;DHT22;10704;42.678;23.288;2023-09-07T00:17:47;19.60;99.90
21092;DHT22;10704;42.678;23.288;2023-09-07T00:20:13;19.50;99.90
21092;DHT22;10704;42.678;23.288;2023-09-07T00:22:41;19.50;99.90
21092;DHT22;10704;42.678;23.288;2023-09-07T00:25:08;19.50;99.90
21092;DHT22;10704;42.678;23.288;2023-09-07T00:27:35;19.50;99.90
21092;DHT22;10704;42.678;23.288;2023-09-07T00:30:04;19.50;99.90
21092;DHT22;10704;42.678;23.288;2023-09-07T00:32:32;19.50;99.90
21092;DHT22;10704;42.678;23.288;2023-09-07T00:34:59;19.50;99.90
21092;DHT22;10704;42.678;23.288;2023-09-07T00:37:25;19.50;99.90
21092;DHT22;10704;42.678;23.288;2023-09-07T00:39:51;19.50;99.90
21092;DHT22;10704;42.678;23.288;2023-09-07T00:42:18;19.50;99.90
21092;DHT22;10704;42.678;23.288;2023-09-07T00:44:44;19.50;99.90
21092;DHT22;10704;42.678;23.288;2023-09-07T00:47:10;19.40;99.90
21092;DHT22;10704;42.678;23.288;2023-09-07T00:49:37;19.30;99.90
21092;DHT22;10704;42.678;23.288;2023-09-07T00:52:05;19.40;99.90
21092;DHT22;10704;42.678;23.288;2023-09-07T00:54:31;19.40;99.90
21092;DHT22;10704;42.678;23.288;2023-09-07T00:56:57;19.40;99.90
21092;DHT22;10704;42.678;23.288;2023-09-07T00:59:23;19.30;99.90
21092;DHT22;10704;42.678;23.288;2023-09-07T01:01:49;19.30;99.90
21092;DHT22;10704;42.678;23.288;2023-09-07T01:04:15;19.30;99.90
21092;DHT22;10704;42.678;23.288;2023-09-07T01:06:52;19.30;99.90
21092;DHT22;10704;42.678;23.288;2023-09-07T01:09:24;19.30;99.90
21092;DHT22;10704;42.678;23.288;2023-09-07T01:11:51;19.30;99.90
21092;DHT22;10704;42.678;23.288;2023-09-07T01:14:18;19.20;99.90
21092;DHT22;10704;42.678;23.288;2023-09-07T01:16:44;19.30;99.90
21092;DHT22;10704;42.678;23.288;2023-09-07T01:19:11;19.20;99.90
21092;DHT22;10704;42.678;23.288;2023-09-07T01:21:38;19.30;99.90
21092;DHT22;10704;42.678;23.288;2023-09-07T01:24:06;19.30;99.90
21092;DHT22;10704;42.678;23.288;2023-09-07T01:26:37;19.30;99.90
21092;DHT22;10704;42.678;23.288;2023-09-07T01:29:06;19.30;99.90
21092;DHT22;10704;42.678;23.288;2023-09-07T01:31:38;19.20;99.90
21092;DHT22;10704;42.678;23.288;2023-09-07T01:34:07;19.30;99.90
21092;DHT22;10704;42.678;23.288;2023-09-07T01:36:35;19.30;99.90
21092;DHT22;10704;42.678;23.288;2023-09-07T01:39:03;19.40;99.90
21092;DHT22;10704;42.678;23.288;2023-09-07T01:41:29;19.40;99.90
21092;DHT22;10704;42.678;23.288;2023-09-07T01:43:56;19.30;99.90
21092;DHT22;10704;42.678;23.288;2023-09-07T01:46:22;19.30;99.90
21092;DHT22;10704;42.678;23.288;2023-09-07T01:48:48;19.30;99.90
21092;DHT22;10704;42.678;23.288;2023-09-07T01:51:14;19.20;99.90
21092;DHT22;10704;42.678;23.288;2023-09-07T01:53:41;19.30;99.90
21092;DHT22;10704;42.678;23.288;2023-09-07T01:56:08;19.20;99.90
21092;DHT22;10704;42.678;23.288;2023-09-07T01:58:34;19.20;99.90
21092;DHT22;10704;42.678;23.288;2023-09-07T02:01:00;19.10;99.90
21092;DHT22;10704;42.678;23.288;2023-09-07T02:03:26;19.10;99.90
21092;DHT22;10704;42.678;23.288;2023-09-07T02:05:53;19.10;99.90
21092;DHT22;10704;42.678;23.288;2023-09-07T02:08:19;19.10;99.90
21092;DHT22;10704;42.678;23.288;2023-09-07T02:10:46;19.10;99.90
21092;DHT22;10704;42.678;23.288;2023-09-07T02:13:11;19.10;99.90
21092;DHT22;10704;42.678;23.288;2023-09-07T02:15:40;19.00;99.90
21092;DHT22;10704;42.678;23.288;2023-09-07T02:18:07;19.00;99.90
21092;DHT22;10704;42.678;23.288;2023-09-07T02:20:33;18.90;99.90
21092;DHT22;10704;42.678;23.288;2023-09-07T02:22:59;19.00;99.90
21092;DHT22;10704;42.678;23.288;2023-09-07T02:25:25;19.00;99.90
21092;DHT22;10704;42.678;23.288;2023-09-07T02:27:51;19.00;99.90
21092;DHT22;10704;42.678;23.288;2023-09-07T02:30:17;19.00;99.90
21092;DHT22;10704;42.678;23.288;2023-09-07T02:32:43;19.00;99.90
21092;DHT22;10704;42.678;23.288;2023-09-07T02:35:09;18.90;99.90
21092;DHT22;10704;42.678;23.288;2023-09-07T02:37:37;18.90;99.90
21092;DHT22;10704;42.678;23.288;2023-09-07T02:40:03;18.90;99.90
21092;DHT22;10704;42.678;23.288;2023-09-07T02:42:34;18.90;99.90
21092;DHT22;10704;42.678;23.288;2023-09-07T02:45:00;18.90;99.90
21092;DHT22;10704;42.678;23.288;2023-09-07T02:47:26;18.80;99.90
21092;DHT22;10704;42.678;23.288;2023-09-07T02:49:52;18.80;99.90
21092;DHT22;10704;42.678;23.288;2023-09-07T02:52:18;18.80;99.90
21092;DHT22;10704;42.678;23.288;2023-09-07T02:54:44;18.80;99.90
21092;DHT22;10704;42.678;23.288;2023-09-07T02:57:10;18.80;99.90
21092;DHT22;10704;42.678;23.288;2023-09-07T02:59:36;18.80;99.90
21092;DHT22;10704;42.678;23.288;2023-09-07T03:02:02;18.80;99.90
21092;DHT22;10704;42.678;23.288;2023-09-07T03:04:28;18.70;99.90
21092;DHT22;10704;42.678;23.288;2023-09-07T03:06:54;18.80;99.90
21092;DHT22;10704;42.678;23.288;2023-09-07T03:09:20;18.80;99.90
21092;DHT22;10704;42.678;23.288;2023-09-07T03:11:46;18.70;99.90
21092;DHT22;10704;42.678;23.288;2023-09-07T03:17:22;18.70;99.90
21092;DHT22;10704;42.678;23.288;2023-09-07T03:19:49;18.70;99.90
21092;DHT22;10704;42.678;23.288;2023-09-07T03:22:15;18.70;99.90
21092;DHT22;10704;42.678;23.288;2023-09-07T03:24:42;18.70;99.90
21092;DHT22;10704;42.678;23.288;2023-09-07T03:27:08;18.60;99.90
21092;DHT22;10704;42.678;23.288;2023-09-07T03:29:34;18.50;99.90
21092;DHT22;10704;42.678;23.288;2023-09-07T03:32:03;18.60;99.90
21092;DHT22;10704;42.678;23.288;2023-09-07T03:34:29;18.60;99.90
21092;DHT22;10704;42.678;23.288;2023-09-07T03:36:55;18.50;99.90
21092;DHT22;10704;42.678;23.288;2023-09-07T03:39:21;18.50;99.90
21092;DHT22;10704;42.678;23.288;2023-09-07T03:41:50;18.50;99.90
21092;DHT22;10704;42.678;23.288;2023-09-07T03:44:16;18.50;99.90
21092;DHT22;10704;42.678;23.288;2023-09-07T03:46:42;18.50;99.90
21092;DHT22;10704;42.678;23.288;2023-09-07T03:49:08;18.50;99.90
21092;DHT22;10704;42.678;23.288;2023-09-07T03:51:33;18.50;99.90
21092;DHT22;10704;42.678;23.288;2023-09-07T03:53:59;18.50;99.90
21092;DHT22;10704;42.678;23.288;2023-09-07T03:56:26;18.40;99.90
21092;DHT22;10704;42.678;23.288;2023-09-07T03:58:52;18.40;99.90
21092;DHT22;10704;42.678;23.288;2023-09-07T04:01:18;18.40;99.90
21092;DHT22;10704;42.678;23.288;2023-09-07T04:03:44;18.40;99.90
21092;DHT22;10704;42.678;23.288;2023-09-07T04:06:11;18.40;99.90
21092;DHT22;10704;42.678;23.288;2023-09-07T04:08:37;18.40;99.90
21092;DHT22;10704;42.678;23.288;2023-09-07T04:11:06;18.40;99.90
21092;DHT22;10704;42.678;23.288;2023-09-07T04:13:32;18.40;99.90
21092;DHT22;10704;42.678;23.288;2023-09-07T04:15:59;18.40;99.90
21092;DHT22;10704;42.678;23.288;2023-09-07T04:18:26;18.40;99.90
21092;DHT22;10704;42.678;23.288;2023-09-07T04:20:51;18.40;99.90
21092;DHT22;10704;42.678;23.288;2023-09-07T04:23:17;18.50;99.90
21092;DHT22;10704;42.678;23.288;2023-09-07T04:25:45;18.40;99.90
21092;DHT22;10704;42.678;23.288;2023-09-07T04:28:13;18.30;99.90
21092;DHT22;10704;42.678;23.288;2023-09-07T04:30:41;18.30;99.90
21092;DHT22;10704;42.678;23.288;2023-09-07T04:33:07;18.30;99.90
21092;DHT22;10704;42.678;23.288;2023-09-07T04:35:35;18.30;99.90
21092;DHT22;10704;42.678;23.288;2023-09-07T04:38:01;18.30;99.90
21092;DHT22;10704;42.678;23.288;2023-09-07T04:40:27;18.20;99.90
21092;DHT22;10704;42.678;23.288;2023-09-07T04:42:53;18.40;99.90
21092;DHT22;10704;42.678;23.288;2023-09-07T04:45:19;18.40;99.90
21092;DHT22;10704;42.678;23.288;2023-09-07T04:47:44;18.50;99.90
21092;DHT22;10704;42.678;23.288;2023-09-07T04:50:10;18.50;99.90
21092;DHT22;10704;42.678;23.288;2023-09-07T04:52:36;18.50;99.90
21092;DHT22;10704;42.678;23.288;2023-09-07T04:55:02;18.60;99.90
21092;DHT22;10704;42.678;23.288;2023-09-07T04:57:48;18.60;99.90
21092;DHT22;10704;42.678;23.288;2023-09-07T05:00:14;18.70;99.90
21092;DHT22;10704;42.678;23.288;2023-09-07T05:02:46;18.70;99.90
21092;DHT22;10704;42.678;23.288;2023-09-07T05:05:12;18.80;99.90
21092;DHT22;10704;42.678;23.288;2023-09-07T05:07:38;18.80;99.90
21092;DHT22;10704;42.678;23.288;2023-09-07T05:10:05;18.90;99.90
21092;DHT22;10704;42.678;23.288;2023-09-07T05:12:34;19.00;99.90
21092;DHT22;10704;42.678;23.288;2023-09-07T05:15:00;18.90;99.90
21092;DHT22;10704;42.678;23.288;2023-09-07T05:17:26;19.00;99.90
21092;DHT22;10704;42.678;23.288;2023-09-07T05:19:52;19.00;99.90
21092;DHT22;10704;42.678;23.288;2023-09-07T05:25:53;19.10;99.90
21092;DHT22;10704;42.678;23.288;2023-09-07T05:28:22;19.00;99.90
21092;DHT22;10704;42.678;23.288;2023-09-07T05:30:49;19.10;99.90
21092;DHT22;10704;42.678;23.288;2023-09-07T05:33:17;19.20;99.90
21092;DHT22;10704;42.678;23.288;2023-09-07T05:35:44;19.10;99.90
21092;DHT22;10704;42.678;23.288;2023-09-07T05:38:15;19.00;99.90
21092;DHT22;10704;42.678;23.288;2023-09-07T05:40:44;19.10;99.90
21092;DHT22;10704;42.678;23.288;2023-09-07T05:43:11;19.00;99.90
21092;DHT22;10704;42.678;23.288;2023-09-07T05:45:39;19.00;99.90
21092;DHT22;10704;42.678;23.288;2023-09-07T05:48:07;19.00;99.90
21092;DHT22;10704;42.678;23.288;2023-09-07T05:50:35;19.10;99.90
21092;DHT22;10704;42.678;23.288;2023-09-07T05:53:01;19.20;99.90
21092;DHT22;10704;42.678;23.288;2023-09-07T05:55:27;19.10;99.90
21092;DHT22;10704;42.678;23.288;2023-09-07T05:57:55;19.10;99.90
21092;DHT22;10704;42.678;23.288;2023-09-07T06:00:22;19.20;99.90
21092;DHT22;10704;42.678;23.288;2023-09-07T06:02:49;19.30;99.90
21092;DHT22;10704;42.678;23.288;2023-09-07T06:05:15;19.30;99.90
21092;DHT22;10704;42.678;23.288;2023-09-07T06:07:43;19.40;99.90
21092;DHT22;10704;42.678;23.288;2023-09-07T06:10:09;19.40;99.90
21092;DHT22;10704;42.678;23.288;2023-09-07T06:12:35;19.60;99.90
21092;DHT22;10704;42.678;23.288;2023-09-07T06:15:02;20.00;99.90
21092;DHT22;10704;42.678;23.288;2023-09-07T06:17:29;20.30;99.90
21092;DHT22;10704;42.678;23.288;2023-09-07T06:19:56;20.70;99.90
21092;DHT22;10704;42.678;23.288;2023-09-07T06:22:22;21.10;99.90
21092;DHT22;10704;42.678;23.288;2023-09-07T06:24:49;21.30;99.90
21092;DHT22;10704;42.678;23.288;2023-09-07T06:27:15;21.70;99.90
21092;DHT22;10704;42.678;23.288;2023-09-07T06:29:41;21.80;99.90
21092;DHT22;10704;42.678;23.288;2023-09-07T06:32:08;22.00;99.90
21092;DHT22;10704;42.678;23.288;2023-09-07T06:34:34;21.90;99.90
21092;DHT22;10704;42.678;23.288;2023-09-07T06:37:00;22.00;99.90
21092;DHT22;10704;42.678;23.288;2023-09-07T06:39:26;22.00;99.90
21092;DHT22;10704;42.678;23.288;2023-09-07T06:41:52;22.20;99.90
21092;DHT22;10704;42.678;23.288;2023-09-07T06:44:21;22.20;99.90
21092;DHT22;10704;42.678;23.288;2023-09-07T06:46:48;22.40;99.90
21092;DHT22;10704;42.678;23.288;2023-09-07T06:49:16;22.50;99.90
21092;DHT22;10704;42.678;23.288;2023-09-07T06:51:42;22.70;99.90
21092;DHT22;10704;42.678;23.288;2023-09-07T06:54:08;22.80;99.90
21092;DHT22;10704;42.678;23.288;2023-09-07T06:56:34;22.70;99.90
21092;DHT22;10704;42.678;23.288;2023-09-07T06:59:00;22.90;99.90
21092;DHT22;10704;42.678;23.288;2023-09-07T07:01:27;23.10;99.90
21092;DHT22;10704;42.678;23.288;2023-09-07T07:03:53;23.10;99.90
21092;DHT22;10704;42.678;23.288;2023-09-07T07:06:20;23.00;99.90
21092;DHT22;10704;42.678;23.288;2023-09-07T07:08:46;23.00;99.90
21092;DHT22;10704;42.678;23.288;2023-09-07T07:11:12;23.10;99.90
21092;DHT22;10704;42.678;23.288;2023-09-07T07:13:38;23.10;99.90
21092;DHT22;10704;42.678;23.288;2023-09-07T07:16:04;23.00;99.90
21092;DHT22;10704;42.678;23.288;2023-09-07T07:18:31;22.90;99.90
21092;DHT22;10704;42.678;23.288;2023-09-07T07:20:58;23.20;99.90
21092;DHT22;10704;42.678;23.288;2023-09-07T07:23:26;23.40;99.90
21092;DHT22;10704;42.678;23.288;2023-09-07T07:25:52;23.40;99.90
21092;DHT22;10704;42.678;23.288;2023-09-07T07:28:18;23.60;99.90
21092;DHT22;10704;42.678;23.288;2023-09-07T07:30:44;24.20;99.90
21092;DHT22;10704;42.678;23.288;2023-09-07T07:33:10;24.30;99.90
21092;DHT22;10704;42.678;23.288;2023-09-07T07:35:39;24.40;99.90
21092;DHT22;10704;42.678;23.288;2023-09-07T07:38:05;24.50;99.90
21092;DHT22;10704;42.678;23.288;2023-09-07T07:40:36;24.10;99.90
21092;DHT22;10704;42.678;23.288;2023-09-07T07:43:03;23.90;99.90
21092;DHT22;10704;42.678;23.288;2023-09-07T07:45:29;23.90;99.90
21092;DHT22;10704;42.678;23.288;2023-09-07T07:47:56;23.70;99.90
21092;DHT22;10704;42.678;23.288;2023-09-07T07:50:23;23.30;99.90
21092;DHT22;10704;42.678;23.288;2023-09-07T07:52:49;23.50;99.90
21092;DHT22;10704;42.678;23.288;2023-09-07T07:55:15;23.50;99.90
21092;DHT22;10704;42.678;23.288;2023-09-07T07:57:42;23.50;99.90
21092;DHT22;10704;42.678;23.288;2023-09-07T08:00:10;23.40;99.90
21092;DHT22;10704;42.678;23.288;2023-09-07T08:02:49;23.20;99.90
21092;DHT22;10704;42.678;23.288;2023-09-07T08:05:16;23.70;99.90
21092;DHT22;10704;42.678;23.288;2023-09-07T08:07:42;24.10;99.90
21092;DHT22;10704;42.678;23.288;2023-09-07T08:10:08;24.20;99.90
21092;DHT22;10704;42.678;23.288;2023-09-07T08:12:34;24.50;99.90
21092;DHT22;10704;42.678;23.288;2023-09-07T08:15:00;24.70;99.90
21092;DHT22;10704;42.678;23.288;2023-09-07T08:17:26;25.00;99.90
21092;DHT22;10704;42.678;23.288;2023-09-07T08:19:52;25.40;99.90
21092;DHT22;10704;42.678;23.288;2023-09-07T08:22:25;25.50;99.90
21092;DHT22;10704;42.678;23.288;2023-09-07T08:24:53;26.10;99.90
21092;DHT22;10704;42.678;23.288;2023-09-07T08:27:19;26.10;99.60
21092;DHT22;10704;42.678;23.288;2023-09-07T08:29:51;26.30;98.10
21092;DHT22;10704;42.678;23.288;2023-09-07T08:32:19;26.60;96.70
21092;DHT22;10704;42.678;23.288;2023-09-07T08:34:45;27.10;95.00
21092;DHT22;10704;42.678;23.288;2023-09-07T08:37:11;27.80;93.10
21092;DHT22;10704;42.678;23.288;2023-09-07T08:39:37;28.10;90.90
21092;DHT22;10704;42.678;23.288;2023-09-07T08:42:05;28.30;89.10
21092;DHT22;10704;42.678;23.288;2023-09-07T08:44:33;28.30;85.80
21092;DHT22;10704;42.678;23.288;2023-09-07T08:46:59;27.80;85.90
21092;DHT22;10704;42.678;23.288;2023-09-07T08:49:27;27.80;85.50
21092;DHT22;10704;42.678;23.288;2023-09-07T08:51:53;27.20;86.90
21092;DHT22;10704;42.678;23.288;2023-09-07T08:54:20;27.30;89.00
21092;DHT22;10704;42.678;23.288;2023-09-07T08:56:49;27.90;86.60
21092;DHT22;10704;42.678;23.288;2023-09-07T08:59:15;27.80;84.50
21092;DHT22;10704;42.678;23.288;2023-09-07T09:01:40;27.50;85.10
21092;DHT22;10704;42.678;23.288;2023-09-07T09:04:07;27.40;85.10
21092;DHT22;10704;42.678;23.288;2023-09-07T09:06:33;27.70;85.40
21092;DHT22;10704;42.678;23.288;2023-09-07T09:08:59;28.30;82.90
21092;DHT22;10704;42.678;23.288;2023-09-07T09:11:26;28.70;80.00
21092;DHT22;10704;42.678;23.288;2023-09-07T09:13:54;29.10;77.10
21092;DHT22;10704;42.678;23.288;2023-09-07T09:16:20;29.20;76.20
21092;DHT22;10704;42.678;23.288;2023-09-07T09:18:51;29.00;75.10
21092;DHT22;10704;42.678;23.288;2023-09-07T09:21:24;28.90;75.30
21092;DHT22;10704;42.678;23.288;2023-09-07T09:23:52;28.80;74.20
21092;DHT22;10704;42.678;23.288;2023-09-07T09:26:19;28.10;75.40
21092;DHT22;10704;42.678;23.288;2023-09-07T09:28:45;28.30;75.10
21092;DHT22;10704;42.678;23.288;2023-09-07T09:31:12;28.70;74.50
21092;DHT22;10704;42.678;23.288;2023-09-07T09:33:42;28.80;72.90
21092;DHT22;10704;42.678;23.288;2023-09-07T09:36:09;27.90;73.00
21092;DHT22;10704;42.678;23.288;2023-09-07T09:38:35;27.20;75.90
21092;DHT22;10704;42.678;23.288;2023-09-07T09:41:02;26.90;76.10
21092;DHT22;10704;42.678;23.288;2023-09-07T09:43:30;26.40;77.20
21092;DHT22;10704;42.678;23.288;2023-09-07T09:45:57;26.30;77.70
21092;DHT22;10704;42.678;23.288;2023-09-07T09:48:27;26.30;78.60
21092;DHT22;10704;42.678;23.288;2023-09-07T09:50:53;26.00;77.90
21092;DHT22;10704;42.678;23.288;2023-09-07T09:53:20;26.20;78.40
21092;DHT22;10704;42.678;23.288;2023-09-07T09:55:47;26.60;78.00
21092;DHT22;10704;42.678;23.288;2023-09-07T09:58:14;27.00;77.20
21092;DHT22;10704;42.678;23.288;2023-09-07T10:00:45;26.90;76.40
21092;DHT22;10704;42.678;23.288;2023-09-07T10:11:33;26.50;77.80
21092;DHT22;10704;42.678;23.288;2023-09-07T10:14:01;26.40;77.60
21092;DHT22;10704;42.678;23.288;2023-09-07T10:16:52;26.30;78.10
21092;DHT22;10704;42.678;23.288;2023-09-07T10:19:49;25.90;78.50
21092;DHT22;10704;42.678;23.288;2023-09-07T10:22:30;26.10;78.40
21092;DHT22;10704;42.678;23.288;2023-09-07T10:25:01;26.20;78.50
21092;DHT22;10704;42.678;23.288;2023-09-07T10:27:39;26.00;79.20
21092;DHT22;10704;42.678;23.288;2023-09-07T10:30:11;25.80;80.60
21092;DHT22;10704;42.678;23.288;2023-09-07T10:32:45;26.10;80.50
21092;DHT22;10704;42.678;23.288;2023-09-07T10:35:15;26.00;79.60
21092;DHT22;10704;42.678;23.288;2023-09-07T10:37:45;25.90;79.70
21092;DHT22;10704;42.678;23.288;2023-09-07T10:40:22;25.90;80.20
21092;DHT22;10704;42.678;23.288;2023-09-07T10:42:48;25.70;80.60
21092;DHT22;10704;42.678;23.288;2023-09-07T10:45:15;25.50;80.90
21092;DHT22;10704;42.678;23.288;2023-09-07T10:47:46;25.40;81.10
21092;DHT22;10704;42.678;23.288;2023-09-07T10:50:12;25.10;81.70
21092;DHT22;10704;42.678;23.288;2023-09-07T10:52:40;25.20;81.90
21092;DHT22;10704;42.678;23.288;2023-09-07T10:55:08;25.30;81.30
21092;DHT22;10704;42.678;23.288;2023-09-07T10:57:46;25.70;81.00
21092;DHT22;10704;42.678;23.288;2023-09-07T11:00:13;25.80;80.20
21092;DHT22;10704;42.678;23.288;2023-09-07T11:02:40;26.20;79.80
21092;DHT22;10704;42.678;23.288;2023-09-07T11:05:07;26.00;79.50
21092;DHT22;10704;42.678;23.288;2023-09-07T11:07:34;26.10;79.60
21092;DHT22;10704;42.678;23.288;2023-09-07T11:10:00;25.90;79.30
21092;DHT22;10704;42.678;23.288;2023-09-07T11:12:26;25.70;80.60
21092;DHT22;10704;42.678;23.288;2023-09-07T11:14:53;25.60;80.90
21092;DHT22;10704;42.678;23.288;2023-09-07T11:17:25;25.40;81.10
21092;DHT22;10704;42.678;23.288;2023-09-07T11:19:54;25.40;81.30
21092;DHT22;10704;42.678;23.288;2023-09-07T11:22:21;25.40;81.60
21092;DHT22;10704;42.678;23.288;2023-09-07T11:24:48;25.40;81.80
21092;DHT22;10704;42.678;23.288;2023-09-07T11:27:17;25.30;81.90
21092;DHT22;10704;42.678;23.288;2023-09-07T11:29:50;25.10;82.50
21092;DHT22;10704;42.678;23.288;2023-09-07T11:32:16;24.90;83.50
21092;DHT22;10704;42.678;23.288;2023-09-07T11:34:51;24.80;84.20
21092;DHT22;10704;42.678;23.288;2023-09-07T11:37:22;24.60;84.70
21092;DHT22;10704;42.678;23.288;2023-09-07T11:39:49;24.40;85.40
21092;DHT22;10704;42.678;23.288;2023-09-07T11:42:14;24.40;86.20
21092;DHT22;10704;42.678;23.288;2023-09-07T11:44:40;24.20;86.90
21092;DHT22;10704;42.678;23.288;2023-09-07T11:47:06;24.10;87.60
21092;DHT22;10704;42.678;23.288;2023-09-07T11:49:33;24.00;88.00
21092;DHT22;10704;42.678;23.288;2023-09-07T11:51:58;23.90;89.00
21092;DHT22;10704;42.678;23.288;2023-09-07T11:54:24;23.80;89.50
21092;DHT22;10704;42.678;23.288;2023-09-07T11:56:50;24.00;90.00
21092;DHT22;10704;42.678;23.288;2023-09-07T11:59:17;24.10;89.30
21092;DHT22;10704;42.678;23.288;2023-09-07T12:01:43;24.10;88.80
21092;DHT22;10704;42.678;23.288;2023-09-07T12:04:09;24.00;89.20
21092;DHT22;10704;42.678;23.288;2023-09-07T12:06:36;24.10;89.70
21092;DHT22;10704;42.678;23.288;2023-09-07T12:09:06;24.20;89.50
21092;DHT22;10704;42.678;23.288;2023-09-07T12:11:33;24.20;89.20
21092;DHT22;10704;42.678;23.288;2023-09-07T12:13:59;24.20;89.30
21092;DHT22;10704;42.678;23.288;2023-09-07T12:16:28;24.30;89.20
21092;DHT22;10704;42.678;23.288;2023-09-07T12:18:54;24.30;89.70
21092;DHT22;10704;42.678;23.288;2023-09-07T12:21:20;24.30;88.80
21092;DHT22;10704;42.678;23.288;2023-09-07T12:23:46;24.40;88.60
21092;DHT22;10704;42.678;23.288;2023-09-07T12:26:13;24.60;88.10
21092;DHT22;10704;42.678;23.288;2023-09-07T12:28:40;24.60;87.90
21092;DHT22;10704;42.678;23.288;2023-09-07T12:31:06;24.60;87.10
21092;DHT22;10704;42.678;23.288;2023-09-07T12:33:32;24.50;87.30
21092;DHT22;10704;42.678;23.288;2023-09-07T12:35:58;24.40;87.10
21092;DHT22;10704;42.678;23.288;2023-09-07T12:38:30;24.40;87.50
21092;DHT22;10704;42.678;23.288;2023-09-07T12:40:56;24.30;87.70
21092;DHT22;10704;42.678;23.288;2023-09-07T12:43:22;24.20;88.00
21092;DHT22;10704;42.678;23.288;2023-09-07T12:45:50;24.30;87.60
21092;DHT22;10704;42.678;23.288;2023-09-07T12:48:16;24.40;87.70
21092;DHT22;10704;42.678;23.288;2023-09-07T12:50:42;24.40;87.40
21092;DHT22;10704;42.678;23.288;2023-09-07T12:53:08;24.40;86.90
21092;DHT22;10704;42.678;23.288;2023-09-07T12:55:34;24.20;87.00
21092;DHT22;10704;42.678;23.288;2023-09-07T12:58:00;24.20;87.40
21092;DHT22;10704;42.678;23.288;2023-09-07T13:00:27;24.20;87.40
21092;DHT22;10704;42.678;23.288;2023-09-07T13:02:55;24.30;87.40
21092;DHT22;10704;42.678;23.288;2023-09-07T13:05:22;24.40;87.00
21092;DHT22;10704;42.678;23.288;2023-09-07T13:08:04;24.40;86.70
21092;DHT22;10704;42.678;23.288;2023-09-07T13:10:32;24.60;86.60
21092;DHT22;10704;42.678;23.288;2023-09-07T13:12:58;24.70;86.60
21092;DHT22;10704;42.678;23.288;2023-09-07T13:15:24;24.80;85.90
21092;DHT22;10704;42.678;23.288;2023-09-07T13:17:50;24.80;85.60
21092;DHT22;10704;42.678;23.288;2023-09-07T13:20:16;24.80;85.60
21092;DHT22;10704;42.678;23.288;2023-09-07T13:22:42;24.70;84.60
21092;DHT22;10704;42.678;23.288;2023-09-07T13:25:09;24.80;84.80
21092;DHT22;10704;42.678;23.288;2023-09-07T13:27:34;24.90;84.40
21092;DHT22;10704;42.678;23.288;2023-09-07T13:30:00;25.00;84.00
21092;DHT22;10704;42.678;23.288;2023-09-07T13:32:32;25.10;84.00
21092;DHT22;10704;42.678;23.288;2023-09-07T13:34:58;25.20;83.00
21092;DHT22;10704;42.678;23.288;2023-09-07T13:37:24;25.10;83.20
21092;DHT22;10704;42.678;23.288;2023-09-07T13:39:50;25.20;83.50
21092;DHT22;10704;42.678;23.288;2023-09-07T13:42:16;25.30;82.90
21092;DHT22;10704;42.678;23.288;2023-09-07T13:44:41;25.20;86.40
21092;DHT22;10704;42.678;23.288;2023-09-07T13:47:07;25.10;84.90
21092;DHT22;10704;42.678;23.288;2023-09-07T13:49:36;25.00;83.90
21092;DHT22;10704;42.678;23.288;2023-09-07T13:52:02;25.00;86.90
21092;DHT22;10704;42.678;23.288;2023-09-07T13:54:28;24.70;89.80
21092;DHT22;10704;42.678;23.288;2023-09-07T13:56:54;24.60;88.10
21092;DHT22;10704;42.678;23.288;2023-09-07T13:59:20;24.50;86.60
21092;DHT22;10704;42.678;23.288;2023-09-07T14:01:46;24.40;87.20
21092;DHT22;10704;42.678;23.288;2023-09-07T14:04:12;24.20;87.80
21092;DHT22;10704;42.678;23.288;2023-09-07T14:06:38;24.00;88.70
21092;DHT22;10704;42.678;23.288;2023-09-07T14:09:03;24.00;89.30
21092;DHT22;10704;42.678;23.288;2023-09-07T14:11:32;24.00;89.80
21092;DHT22;10704;42.678;23.288;2023-09-07T14:13:59;24.00;90.00
21092;DHT22;10704;42.678;23.288;2023-09-07T14:16:24;24.10;90.20
21092;DHT22;10704;42.678;23.288;2023-09-07T14:18:52;24.10;90.50
21092;DHT22;10704;42.678;23.288;2023-09-07T14:21:17;24.10;90.20
21092;DHT22;10704;42.678;23.288;2023-09-07T14:23:44;24.10;90.20
21092;DHT22;10704;42.678;23.288;2023-09-07T14:26:11;24.00;89.60
21092;DHT22;10704;42.678;23.288;2023-09-07T14:28:37;23.90;89.50
21092;DHT22;10704;42.678;23.288;2023-09-07T14:31:04;23.80;89.50
21092;DHT22;10704;42.678;23.288;2023-09-07T14:33:32;23.80;89.50
21092;DHT22;10704;42.678;23.288;2023-09-07T14:35:58;23.80;89.90
21092;DHT22;10704;42.678;23.288;2023-09-07T14:38:24;23.80;89.60
21092;DHT22;10704;42.678;23.288;2023-09-07T14:40:53;24.00;89.90
21092;DHT22;10704;42.678;23.288;2023-09-07T14:43:22;24.00;89.70
21092;DHT22;10704;42.678;23.288;2023-09-07T14:45:48;24.00;89.30
21092;DHT22;10704;42.678;23.288;2023-09-07T14:48:14;23.90;89.50
21092;DHT22;10704;42.678;23.288;2023-09-07T14:50:40;24.00;89.30
21092;DHT22;10704;42.678;23.288;2023-09-07T14:53:06;24.00;89.00
21092;DHT22;10704;42.678;23.288;2023-09-07T14:55:32;24.00;88.60
21092;DHT22;10704;42.678;23.288;2023-09-07T14:57:58;24.00;88.80
21092;DHT22;10704;42.678;23.288;2023-09-07T15:00:24;23.90;88.80
21092;DHT22;10704;42.678;23.288;2023-09-07T15:02:53;23.80;89.30
21092;DHT22;10704;42.678;23.288;2023-09-07T15:05:19;23.70;89.60
21092;DHT22;10704;42.678;23.288;2023-09-07T15:07:45;23.60;90.00
21092;DHT22;10704;42.678;23.288;2023-09-07T15:10:11;23.60;90.20
21092;DHT22;10704;42.678;23.288;2023-09-07T15:12:36;23.60;90.30
21092;DHT22;10704;42.678;23.288;2023-09-07T15:15:02;23.60;90.50
21092;DHT22;10704;42.678;23.288;2023-09-07T15:17:28;23.60;90.70
21092;DHT22;10704;42.678;23.288;2023-09-07T15:19:55;23.50;90.70
21092;DHT22;10704;42.678;23.288;2023-09-07T15:22:21;23.40;90.90
21092;DHT22;10704;42.678;23.288;2023-09-07T15:24:47;23.50;91.00
21092;DHT22;10704;42.678;23.288;2023-09-07T15:27:13;23.40;91.10
21092;DHT22;10704;42.678;23.288;2023-09-07T15:29:39;23.40;91.00